createdAt,value
2022-09-13T00:00:12.898Z,15.01
2022-09-13T00:05:15.801Z,15.31
2022-09-13T00:10:18.514Z,14.81
2022-09-13T00:15:22.442Z,12.95
2022-09-13T00:20:26.504Z,13.28
2022-09-13T00:25:29.179Z,14.33
2022-09-13T00:30:33.446Z,14.39
2022-09-13T00:35:35.886Z,14.10
2022-09-13T00:40:39.118Z,14.30
2022-09-13T00:45:43.161Z,13.78
2022-09-13T00:50:51.941Z,13.61
2022-09-13T00:55:59.041Z,13.22
2022-09-13T01:01:08.963Z,13.61
2022-09-13T01:06:15.245Z,13.60
2022-09-13T01:11:25.119Z,13.77
2022-09-13T01:16:29.104Z,14.13
2022-09-13T01:22:10.882Z,14.33
2022-09-13T01:27:38.361Z,14.47
2022-09-13T01:33:06.734Z,14.59
2022-09-13T01:38:26.782Z,13.48
2022-09-13T01:43:43.945Z,14.13
2022-09-13T01:48:56.346Z,14.44
2022-09-13T01:54:14.431Z,13.85
2022-09-13T01:59:23.893Z,14.38
2022-09-13T02:04:35.295Z,13.46
2022-09-13T02:09:42.765Z,14.08
2022-09-13T02:14:49.820Z,13.51
2022-09-13T02:19:58.519Z,14.02
2022-09-13T02:25:06.066Z,14.50
2022-09-13T02:30:11.154Z,13.12
2022-09-13T02:35:20.385Z,14.12
2022-09-13T02:40:34.419Z,13.83
2022-09-13T02:45:46.597Z,13.46
2022-09-13T02:51:01.047Z,13.83
2022-09-13T02:56:12.336Z,14.02
2022-09-13T03:01:16.155Z,14.07
2022-09-13T03:06:25.306Z,14.14
2022-09-13T03:11:42.489Z,14.29
2022-09-13T03:17:00.898Z,14.46
2022-09-13T03:22:28.910Z,14.49
2022-09-13T03:27:40.714Z,14.40
2022-09-13T03:32:51.746Z,14.42
2022-09-13T03:37:59.269Z,14.36
2022-09-13T03:43:09.441Z,14.40
2022-09-13T03:48:13.515Z,14.47
2022-09-13T03:53:22.979Z,14.45
2022-09-13T03:58:27.368Z,14.46
2022-09-13T04:03:31.923Z,14.41
2022-09-13T04:08:35.846Z,14.19
2022-09-13T04:13:38.981Z,14.48
2022-09-13T04:18:41.507Z,14.44
2022-09-13T04:23:45.528Z,14.80
2022-09-13T04:28:48.080Z,14.82
2022-09-13T04:33:50.765Z,14.98
2022-09-13T04:38:54.810Z,15.07
2022-09-13T04:43:57.535Z,15.22
2022-09-13T04:49:00.132Z,15.30
2022-09-13T04:54:04.434Z,15.30
2022-09-13T04:59:07.002Z,15.40
2022-09-13T05:04:10.658Z,15.61
2022-09-13T05:09:16.671Z,15.63
2022-09-13T05:14:20.979Z,15.65
2022-09-13T05:19:24.524Z,15.87
2022-09-13T05:24:28.646Z,15.72
2022-09-13T05:29:31.105Z,15.86
2022-09-13T05:34:33.575Z,15.97
2022-09-13T05:40:00.404Z,16.49
2022-09-13T05:45:00.110Z,16.74
2022-09-13T05:50:10.438Z,16.29
2022-09-13T05:55:16.182Z,16.45
2022-09-13T06:00:18.867Z,17.28
2022-09-13T06:05:21.353Z,17.49
2022-09-13T06:10:25.321Z,17.62
2022-09-13T06:15:27.769Z,17.99
2022-09-13T06:20:31.164Z,17.94
2022-09-13T06:25:35.050Z,17.43
2022-09-13T06:30:38.075Z,17.87
2022-09-13T06:35:40.540Z,17.89
2022-09-13T06:40:44.826Z,17.38
2022-09-13T06:45:49.291Z,17.79
2022-09-13T06:50:51.910Z,16.67
2022-09-13T06:56:03.607Z,17.07
2022-09-13T07:01:12.635Z,17.66
2022-09-13T07:06:21.512Z,17.60
2022-09-13T07:11:29.882Z,17.75
2022-09-13T07:16:33.868Z,17.84
2022-09-13T07:21:36.744Z,18.25
2022-09-13T07:26:40.527Z,17.87
2022-09-13T07:31:45.450Z,18.19
2022-09-13T07:36:49.271Z,18.06
2022-09-13T07:41:53.830Z,18.50
2022-09-13T07:46:56.939Z,18.06
2022-09-13T07:51:59.429Z,18.19
2022-09-13T07:57:03.309Z,18.02
2022-09-13T08:02:05.917Z,18.65
2022-09-13T08:07:08.475Z,18.30
2022-09-13T08:12:12.331Z,18.76
2022-09-13T08:17:14.973Z,19.20
2022-09-13T08:22:17.523Z,19.29
2022-09-13T08:27:21.311Z,19.66
2022-09-13T08:32:23.826Z,19.33
2022-09-13T08:37:26.372Z,19.75
2022-09-13T08:42:47.249Z,19.80
2022-09-13T08:47:57.421Z,20.05
2022-09-13T08:53:09.638Z,20.08
2022-09-13T08:58:31.062Z,20.38
2022-09-13T09:03:42.853Z,20.55
2022-09-13T09:08:50.704Z,20.09
2022-09-13T09:13:58.697Z,19.81
2022-09-13T09:19:10.934Z,19.92
2022-09-13T09:24:19.938Z,20.43
2022-09-13T09:29:27.030Z,20.58
2022-09-13T09:34:43.793Z,20.94
2022-09-13T09:39:46.625Z,20.95
2022-09-13T09:44:53.377Z,20.65
2022-09-13T09:50:10.774Z,20.83
2022-09-13T09:55:21.180Z,21.22
2022-09-13T10:00:28.375Z,21.64
2022-09-13T10:05:32.455Z,21.89
2022-09-13T10:10:41.691Z,22.36
2022-09-13T10:15:55.408Z,22.53
2022-09-13T10:21:04.217Z,22.42
2022-09-13T10:26:12.242Z,22.71
2022-09-13T10:31:17.973Z,23.20
2022-09-13T10:36:50.722Z,23.08
2022-09-13T10:41:52.051Z,23.43
2022-09-13T10:46:56.437Z,23.00
2022-09-13T10:51:58.900Z,22.96
2022-09-13T10:57:01.839Z,22.61
2022-09-13T11:02:36.294Z,22.41
2022-09-13T11:07:45.069Z,22.36
2022-09-13T11:12:55.889Z,23.08
2022-09-13T11:18:25.898Z,23.75
2022-09-13T11:23:42.996Z,23.72
2022-09-13T11:28:57.742Z,22.90
2022-09-13T11:34:13.001Z,23.41
2022-09-13T11:39:28.064Z,24.04
2022-09-13T11:44:52.169Z,23.72
2022-09-13T11:50:11.132Z,24.27
2022-09-13T11:55:18.863Z,24.40
2022-09-13T12:00:23.950Z,24.44
2022-09-13T12:05:32.976Z,24.74
2022-09-13T12:10:45.783Z,25.20
2022-09-13T12:15:52.880Z,25.72
2022-09-13T12:21:00.615Z,30.28
2022-09-13T12:26:09.972Z,33.13
2022-09-13T12:31:17.001Z,33.29
2022-09-13T12:36:57.380Z,31.03
2022-09-13T12:42:27.418Z,28.16
2022-09-13T12:47:55.218Z,26.95
2022-09-13T12:53:10.738Z,26.42
2022-09-13T12:58:30.325Z,26.56
2022-09-13T13:03:38.356Z,25.99
2022-09-13T13:08:51.613Z,26.26
2022-09-13T13:13:59.113Z,25.93
2022-09-13T13:19:08.670Z,25.25
2022-09-13T13:24:47.112Z,26.08
2022-09-13T13:30:36.037Z,25.93
2022-09-13T13:35:38.729Z,26.06
2022-09-13T13:40:42.776Z,25.31
2022-09-13T13:45:59.964Z,24.87
2022-09-13T13:51:27.329Z,25.07
2022-09-13T13:56:48.095Z,24.97
2022-09-13T14:01:55.360Z,25.06
2022-09-13T14:07:18.980Z,24.93
2022-09-13T14:12:47.657Z,25.26
2022-09-13T14:18:22.457Z,24.82
2022-09-13T14:23:25.185Z,24.84
2022-09-13T14:28:29.657Z,25.05
2022-09-13T14:33:36.226Z,25.13
2022-09-13T14:38:38.942Z,24.82
2022-09-13T14:43:43.593Z,25.42
2022-09-13T14:48:51.525Z,25.93
2022-09-13T14:53:58.188Z,26.47
2022-09-13T14:59:06.669Z,25.96
2022-09-13T15:04:09.233Z,25.20
2022-09-13T15:09:18.609Z,25.48
2022-09-13T15:14:28.207Z,25.30
2022-09-13T15:19:37.667Z,25.70
2022-09-13T15:24:44.957Z,25.32
2022-09-13T15:29:53.995Z,25.25
2022-09-13T15:34:58.429Z,25.23
2022-09-13T15:40:14.385Z,25.39
2022-09-13T15:45:19.709Z,25.82
2022-09-13T15:50:26.911Z,25.48
2022-09-13T15:55:29.774Z,25.50
2022-09-13T16:00:33.768Z,25.89
2022-09-13T16:05:36.878Z,25.69
2022-09-13T16:10:39.658Z,25.38
2022-09-13T16:15:44.150Z,26.26
2022-09-13T16:20:46.767Z,26.36
2022-09-13T16:25:50.213Z,26.23
2022-09-13T16:30:54.737Z,26.15
2022-09-13T16:36:02.008Z,26.16
2022-09-13T16:41:07.189Z,26.14
2022-09-13T16:46:13.502Z,25.73
2022-09-13T16:51:16.374Z,25.38
2022-09-13T16:56:21.569Z,24.67
2022-09-13T17:01:27.455Z,24.58
2022-09-13T17:06:30.456Z,24.59
2022-09-13T17:11:38.406Z,24.51
2022-09-13T17:16:45.046Z,24.30
2022-09-13T17:21:48.695Z,23.99
2022-09-13T17:26:51.356Z,24.17
2022-09-13T17:31:55.166Z,24.05
2022-09-13T17:36:57.773Z,23.76
2022-09-13T17:42:00.231Z,23.79
2022-09-13T17:47:04.254Z,23.67
2022-09-13T17:52:08.175Z,23.41
2022-09-13T17:57:11.861Z,22.08
2022-09-13T18:02:16.202Z,21.12
2022-09-13T18:07:19.165Z,21.48
2022-09-13T18:12:21.832Z,21.67
2022-09-13T18:17:25.745Z,21.70
2022-09-13T18:22:28.232Z,21.89
2022-09-13T18:27:30.725Z,21.83
2022-09-13T18:32:34.646Z,21.56
2022-09-13T18:37:37.042Z,20.82
2022-09-13T18:42:41.008Z,20.29
2022-09-13T18:47:45.039Z,19.82
2022-09-13T18:52:47.575Z,19.36
2022-09-13T18:57:49.995Z,19.67
2022-09-13T19:03:11.253Z,19.42
2022-09-13T19:08:14.573Z,19.80
2022-09-13T19:13:17.188Z,19.93
2022-09-13T19:18:21.097Z,19.93
2022-09-13T19:23:33.779Z,19.83
2022-09-13T19:28:47.820Z,18.83
2022-09-13T19:33:52.178Z,18.68
2022-09-13T19:38:57.023Z,19.48
2022-09-13T19:44:01.717Z,19.56
2022-09-13T19:49:06.947Z,19.66
2022-09-13T19:54:12.316Z,20.15
2022-09-13T19:59:19.728Z,19.89
2022-09-13T20:04:25.530Z,20.17
2022-09-13T20:09:28.216Z,19.38
2022-09-13T20:14:34.811Z,18.33
2022-09-13T20:19:43.525Z,18.02
2022-09-13T20:24:48.736Z,17.95
2022-09-13T20:29:51.696Z,17.48
2022-09-13T20:34:55.666Z,17.10
2022-09-13T20:40:03.185Z,17.22
2022-09-13T20:45:07.452Z,17.17
2022-09-13T20:50:12.209Z,18.00
2022-09-13T20:55:15.745Z,18.15
2022-09-13T21:00:18.307Z,17.46
2022-09-13T21:05:22.102Z,17.35
2022-09-13T21:10:26.126Z,16.91
2022-09-13T21:15:28.608Z,17.13
2022-09-13T21:20:33.995Z,18.37
2022-09-13T21:25:37.269Z,17.84
2022-09-13T21:30:40.958Z,17.39
2022-09-13T21:35:44.977Z,17.48
2022-09-13T21:41:00.033Z,18.63
2022-09-13T21:46:04.747Z,19.38
2022-09-13T21:51:11.586Z,19.22
2022-09-13T21:56:16.720Z,19.12
2022-09-13T22:01:22.535Z,17.57
2022-09-13T22:06:31.354Z,17.58
2022-09-13T22:11:38.474Z,17.38
2022-09-13T22:16:43.377Z,18.40
2022-09-13T22:21:49.053Z,18.90
2022-09-13T22:26:53.173Z,18.74
2022-09-13T22:31:55.838Z,18.15
2022-09-13T22:37:02.965Z,18.91
2022-09-13T22:42:05.996Z,17.46
2022-09-13T22:47:09.279Z,17.44
2022-09-13T22:52:13.258Z,18.12
2022-09-13T22:57:15.664Z,17.60
2022-09-13T23:02:18.126Z,16.64
2022-09-13T23:07:21.930Z,16.79
2022-09-13T23:12:24.507Z,17.29
2022-09-13T23:17:27.172Z,16.51
2022-09-13T23:22:31.186Z,16.44
2022-09-13T23:27:33.636Z,16.63
2022-09-13T23:32:36.067Z,16.37
2022-09-13T23:37:40.168Z,16.25
2022-09-13T23:42:42.780Z,16.46
2022-09-13T23:47:45.310Z,16.85
2022-09-13T23:52:49.396Z,17.06
2022-09-13T23:57:51.860Z,17.47
